Time;durP1;ratioP1;P1;durP2;ratioP2;P2;SDS_P1;SDS_P2;PMS_P1;PMS_P2;Temp;Humidity;BMP_temperature;BMP_pressure;BME280_temperature;BME280_humidity;BME280_pressure;Samples;Min_cycle;Max_cycle;Signal;HPM_P1;HPM_P2
2022/05/24 00:02:05;;;;;;;1.52;1.10;;;15.90;93.40;;;;;;6236713;23;20090;-76
2022/05/24 00:04:32;;;;;;;1.20;0.90;;;15.90;93.70;;;;;;6235195;23;20077;-76
2022/05/24 00:06:58;;;;;;;1.83;0.68;;;16.00;93.70;;;;;;6234884;23;20004;-76
2022/05/24 00:09:25;;;;;;;2.55;0.90;;;16.00;93.30;;;;;;6235589;23;20679;-73
2022/05/24 00:11:51;;;;;;;1.88;0.98;;;16.00;93.30;;;;;;6235525;23;20011;-75
2022/05/24 00:15:19;;;;;;;3.25;0.90;;;16.10;93.70;;;;;;6236408;23;20004;-74
2022/05/24 00:17:04;;;;;;;1.20;1.10;;;16.10;94.20;;;;;;6234242;23;20461;-73
2022/05/24 00:19:29;;;;;;;1.90;0.80;;;16.00;94.10;;;;;;6233385;23;20035;-73
2022/05/24 00:21:55;;;;;;;0.80;0.75;;;16.00;94.30;;;;;;6233484;23;20481;-74
2022/05/24 00:24:21;;;;;;;2.70;1.23;;;16.00;94.30;;;;;;6235174;23;20054;-75
2022/05/24 00:26:47;;;;;;;0.73;0.73;;;16.00;94.70;;;;;;6235725;23;20012;-74
2022/05/24 00:29:13;;;;;;;1.08;0.90;;;16.00;95.10;;;;;;6233923;23;20378;-74
2022/05/24 00:31:38;;;;;;;3.15;1.08;;;16.00;94.70;;;;;;6234570;23;20004;-73
2022/05/24 00:34:04;;;;;;;1.40;1.20;;;16.00;94.90;;;;;;6234597;23;20008;-73
2022/05/24 00:36:30;;;;;;;2.60;1.15;;;16.00;95.40;;;;;;6237324;23;20074;-75
2022/05/24 00:38:56;;;;;;;2.35;1.33;;;16.00;95.10;;;;;;6234358;23;20004;-74
2022/05/24 00:41:36;;;;;;;1.35;1.02;;;15.90;95.60;;;;;;6235231;23;20022;-75
2022/05/24 00:44:24;;;;;;;0.95;0.80;;;15.90;95.60;;;;;;6236195;23;20112;-75
2022/05/24 00:47:10;;;;;;;2.33;0.95;;;15.90;94.90;;;;;;6234581;23;20093;-75
2022/05/24 00:49:38;;;;;;;2.20;1.15;;;16.00;95.30;;;;;;6235957;23;20003;-76
2022/05/24 00:52:14;;;;;;;1.02;0.90;;;16.00;95.00;;;;;;6236298;23;20007;-74
2022/05/24 00:54:44;;;;;;;1.10;0.90;;;16.10;94.70;;;;;;6236113;23;20112;-73
2022/05/24 00:57:30;;;;;;;1.88;0.90;;;16.10;94.50;;;;;;6236316;23;20072;-73
2022/05/24 01:00:08;;;;;;;1.52;1.10;;;16.10;94.50;;;;;;6235668;23;20011;-73
2022/05/24 01:02:38;;;;;;;1.55;1.23;;;16.10;95.30;;;;;;6234847;23;20020;-73
2022/05/24 01:05:06;;;;;;;3.13;1.10;;;16.10;94.80;;;;;;6235121;23;20004;-73
2022/05/24 01:07:32;;;;;;;1.45;1.00;;;16.00;95.30;;;;;;6236132;23;20006;-73
2022/05/24 01:10:05;;;;;;;5.45;1.50;;;16.00;95.50;;;;;;6235885;23;20087;-73
2022/05/24 01:12:32;;;;;;;2.22;0.85;;;16.00;95.20;;;;;;6235203;23;20256;-73
2022/05/24 01:15:01;;;;;;;6.60;1.05;;;16.00;95.90;;;;;;6235237;23;20334;-73
2022/05/24 01:17:27;;;;;;;2.53;1.40;;;16.00;96.10;;;;;;6235074;23;20008;-72
2022/05/24 01:19:53;;;;;;;2.80;1.20;;;16.00;95.80;;;;;;6234947;23;20008;-73
2022/05/24 01:22:37;;;;;;;0.90;0.90;;;16.00;95.30;;;;;;6233788;23;20087;-72
2022/05/24 01:25:25;;;;;;;2.53;1.30;;;16.00;95.40;;;;;;6236028;23;20809;-73
2022/05/24 01:27:51;;;;;;;3.60;1.27;;;16.00;95.20;;;;;;6236285;23;20016;-73
2022/05/24 01:30:17;;;;;;;5.00;1.30;;;16.00;95.70;;;;;;6236439;23;20031;-73
2022/05/24 01:38:19;;;;;;;4.95;1.20;;;16.00;95.60;;;;;;6238462;23;20077;-73
2022/05/24 01:40:47;;;;;;;1.80;1.23;;;16.00;95.40;;;;;;6237678;23;20059;-74
2022/05/24 01:43:15;;;;;;;4.72;1.27;;;16.10;95.30;;;;;;6238530;23;20012;-72
2022/05/24 01:45:52;;;;;;;2.55;1.25;;;16.10;95.10;;;;;;6237668;23;20066;-73
2022/05/24 01:48:25;;;;;;;5.47;1.20;;;16.10;95.10;;;;;;6239693;23;20015;-72
2022/05/24 01:50:54;;;;;;;3.85;1.08;;;16.10;95.20;;;;;;6236941;23;20209;-73
2022/05/24 01:53:24;;;;;;;1.98;1.15;;;16.10;95.00;;;;;;6237876;23;20004;-73
2022/05/24 01:55:53;;;;;;;2.35;1.33;;;16.10;95.00;;;;;;6236632;23;20288;-73
2022/05/24 01:58:21;;;;;;;1.85;1.50;;;16.10;94.90;;;;;;6239275;23;20004;-73
2022/05/24 02:01:03;;;;;;;5.05;1.20;;;16.00;95.00;;;;;;6236342;23;20008;-73
2022/05/24 02:03:28;;;;;;;1.75;1.13;;;15.90;96.10;;;;;;6236411;22;20008;-74
2022/05/24 02:05:54;;;;;;;1.95;1.30;;;15.90;95.40;;;;;;6234960;23;20007;-73
2022/05/24 02:08:20;;;;;;;1.35;1.00;;;15.90;95.70;;;;;;6234493;23;20008;-75
2022/05/24 02:10:55;;;;;;;1.98;1.30;;;15.90;95.30;;;;;;6235217;23;20004;-73
2022/05/24 02:13:37;;;;;;;2.00;1.23;;;16.00;95.20;;;;;;6236142;23;20646;-73
2022/05/24 02:16:08;;;;;;;1.00;0.90;;;16.00;95.00;;;;;;6234668;23;20066;-73
2022/05/24 02:18:34;;;;;;;3.17;1.10;;;16.00;94.90;;;;;;6235320;23;20012;-73
2022/05/24 02:20:59;;;;;;;1.77;1.15;;;16.00;95.30;;;;;;6233978;23;20004;-74
2022/05/24 02:23:25;;;;;;;1.60;1.33;;;16.00;96.00;;;;;;6233600;23;20074;-73
2022/05/24 02:25:53;;;;;;;2.85;1.15;;;15.90;96.00;;;;;;6234063;23;20229;-73
2022/05/24 02:28:23;;;;;;;3.72;1.10;;;15.90;95.50;;;;;;6235285;23;20008;-72
2022/05/24 02:30:56;;;;;;;2.80;0.95;;;16.00;95.10;;;;;;6235995;23;20010;-73
2022/05/24 02:33:23;;;;;;;4.70;1.20;;;16.00;95.20;;;;;;6209028;23;20341;-73
2022/05/24 02:35:49;;;;;;;1.60;1.40;;;15.90;95.50;;;;;;6234196;23;20027;-73
2022/05/24 02:38:15;;;;;;;2.65;1.13;;;15.90;95.80;;;;;;6233728;23;20024;-73
2022/05/24 02:43:25;;;;;;;1.33;0.80;;;15.90;95.50;;;;;;6235522;23;20125;-73
2022/05/24 02:45:51;;;;;;;3.92;1.27;;;15.90;96.00;;;;;;6235125;23;20012;-74
2022/05/24 02:48:16;;;;;;;1.45;1.00;;;15.80;96.50;;;;;;6233803;23;20035;-73
2022/05/24 02:50:42;;;;;;;2.38;1.08;;;15.80;96.80;;;;;;6234890;23;20005;-73
2022/05/24 02:53:09;;;;;;;2.20;1.10;;;15.80;96.80;;;;;;6233659;23;20704;-73
2022/05/24 02:55:34;;;;;;;2.05;1.00;;;15.80;96.80;;;;;;6235276;23;20004;-74
2022/05/24 02:58:00;;;;;;;4.53;1.20;;;15.80;96.20;;;;;;6208353;23;20014;-73
2022/05/24 03:00:27;;;;;;;2.50;1.10;;;15.90;95.80;;;;;;6207732;23;20008;-73
2022/05/24 03:02:53;;;;;;;1.65;0.95;;;15.90;95.60;;;;;;6235691;23;20049;-73
2022/05/24 03:05:19;;;;;;;4.03;1.23;;;15.90;95.50;;;;;;6232141;23;20008;-73
2022/05/24 03:10:30;;;;;;;1.40;1.30;;;15.90;96.00;;;;;;6235905;23;20077;-73
2022/05/24 03:15:45;;;;;;;1.65;1.20;;;16.00;95.40;;;;;;6234863;23;20019;-73
2022/05/24 03:18:13;;;;;;;1.23;1.10;;;16.00;95.10;;;;;;6233768;23;20349;-73
2022/05/24 03:20:39;;;;;;;2.15;0.90;;;16.00;94.70;;;;;;6233745;23;20284;-73
2022/05/24 03:23:06;;;;;;;2.58;1.08;;;16.00;94.70;;;;;;6234943;23;20026;-73
2022/05/24 03:25:32;;;;;;;1.55;1.27;;;15.90;95.10;;;;;;6234751;23;20062;-73
2022/05/24 03:27:59;;;;;;;3.55;1.00;;;15.90;95.70;;;;;;6234367;23;20026;-73
2022/05/24 03:30:25;;;;;;;3.80;1.30;;;15.90;95.60;;;;;;6234565;23;20038;-73
2022/05/24 03:32:51;;;;;;;1.95;1.15;;;15.90;95.90;;;;;;6238296;23;20425;-73
2022/05/24 03:35:17;;;;;;;1.52;1.20;;;15.90;95.70;;;;;;6236323;23;19996;-73
2022/05/24 03:37:43;;;;;;;1.33;1.23;;;15.90;95.90;;;;;;6237027;23;20008;-73
2022/05/24 03:40:10;;;;;;;3.22;1.38;;;15.90;96.10;;;;;;6237137;23;20020;-73
2022/05/24 03:42:36;;;;;;;2.17;1.10;;;15.90;95.80;;;;;;6237920;23;20012;-73
2022/05/24 03:45:04;;;;;;;3.90;1.33;;;15.90;95.80;;;;;;6237767;23;20000;-73
2022/05/24 03:47:34;;;;;;;3.30;1.20;;;15.80;96.10;;;;;;6235479;23;20341;-74
2022/05/24 03:50:00;;;;;;;1.80;1.30;;;15.80;96.60;;;;;;6232806;23;20487;-72
2022/05/24 03:52:26;;;;;;;2.72;1.33;;;15.70;97.00;;;;;;6236894;23;20087;-72
2022/05/24 03:54:51;;;;;;;1.25;1.13;;;15.70;97.20;;;;;;6236808;23;20341;-72
2022/05/24 04:00:01;;;;;;;1.42;1.30;;;15.70;98.10;;;;;;6234228;23;20073;-72
2022/05/24 04:02:27;;;;;;;2.92;1.17;;;15.70;97.70;;;;;;6232937;23;20095;-73
2022/05/24 04:04:53;;;;;;;11.85;1.40;;;15.70;97.60;;;;;;6235067;23;20075;-74
2022/05/24 04:07:18;;;;;;;4.25;1.13;;;15.70;97.70;;;;;;6235921;23;20004;-73
2022/05/24 04:09:44;;;;;;;3.88;1.50;;;15.70;97.60;;;;;;6237175;23;20617;-74
2022/05/24 04:12:10;;;;;;;2.00;1.30;;;15.70;97.60;;;;;;6235725;23;20011;-73
2022/05/24 04:14:35;;;;;;;8.40;1.52;;;15.70;97.30;;;;;;6236693;23;20401;-72
2022/05/24 04:17:01;;;;;;;1.85;1.30;;;15.70;97.00;;;;;;6234906;23;20047;-73
2022/05/24 04:19:27;;;;;;;2.28;1.27;;;15.70;96.90;;;;;;6234816;23;20016;-73
2022/05/24 04:21:53;;;;;;;5.40;1.35;;;15.70;97.00;;;;;;6234462;23;20052;-73
2022/05/24 04:24:18;;;;;;;2.58;1.30;;;15.80;97.10;;;;;;6234936;23;20024;-72
2022/05/24 04:26:44;;;;;;;2.40;1.20;;;15.80;97.00;;;;;;6237203;23;20011;-73
2022/05/24 04:29:10;;;;;;;2.75;1.42;;;15.80;96.90;;;;;;6233968;23;20019;-72
2022/05/24 04:31:36;;;;;;;1.88;1.38;;;15.70;97.10;;;;;;6236579;23;20008;-73
2022/05/24 04:34:02;;;;;;;2.83;1.20;;;15.70;97.60;;;;;;6236682;23;20389;-72
2022/05/24 04:36:27;;;;;;;5.03;1.63;;;15.60;97.70;;;;;;6233890;23;20012;-73
2022/05/24 04:38:53;;;;;;;6.22;1.10;;;15.40;98.50;;;;;;6236170;23;20446;-73
2022/05/24 04:44:03;;;;;;;1.50;1.25;;;15.30;99.90;;;;;;6236960;23;20598;-73
2022/05/24 04:47:06;;;;;;;7.88;1.80;;;15.20;99.90;;;;;;6235213;23;20032;-74
2022/05/24 04:49:14;;;;;;;3.28;1.70;;;15.00;99.90;;;;;;6234251;23;20018;-76
2022/05/24 04:51:40;;;;;;;1.85;1.75;;;14.80;99.90;;;;;;6236876;23;20079;-75
2022/05/24 04:54:06;;;;;;;3.13;1.45;;;14.70;99.90;;;;;;6234502;23;20091;-74
2022/05/24 04:56:31;;;;;;;4.70;1.75;;;14.60;99.90;;;;;;6236498;23;20016;-74
2022/05/24 04:58:57;;;;;;;3.47;1.80;;;14.50;99.90;;;;;;6234499;23;20007;-73
2022/05/24 05:01:22;;;;;;;2.70;1.80;;;14.60;99.90;;;;;;6235764;23;20333;-75
2022/05/24 05:03:48;;;;;;;2.78;1.92;;;14.60;99.90;;;;;;6208360;23;20093;-74
2022/05/24 05:06:14;;;;;;;1.92;1.73;;;14.70;99.90;;;;;;6238300;23;20008;-74
2022/05/24 05:08:40;;;;;;;8.80;1.88;;;14.70;99.90;;;;;;6231741;23;20019;-74
2022/05/24 05:11:05;;;;;;;1.73;1.63;;;14.70;99.90;;;;;;6234487;23;20004;-74
2022/05/24 05:13:31;;;;;;;14.20;1.88;;;14.70;99.90;;;;;;6207554;23;20022;-76
2022/05/24 05:15:57;;;;;;;2.92;1.70;;;14.80;99.90;;;;;;6234315;23;20154;-75
2022/05/24 05:18:24;;;;;;;2.03;1.85;;;14.80;99.90;;;;;;6226868;23;20012;-74
2022/05/24 05:20:50;;;;;;;6.28;1.75;;;14.80;99.90;;;;;;6233053;23;20004;-74
2022/05/24 05:23:16;;;;;;;3.20;2.00;;;14.80;99.90;;;;;;6230380;23;20012;-74
2022/05/24 05:25:47;;;;;;;2.25;2.05;;;14.80;99.90;;;;;;6207979;23;20028;-72
2022/05/24 05:28:13;;;;;;;2.30;1.92;;;14.80;99.90;;;;;;6235339;23;20028;-74
2022/05/24 05:33:23;;;;;;;3.05;2.17;;;14.80;99.90;;;;;;6234938;23;20106;-74
2022/05/24 05:35:49;;;;;;;3.45;2.17;;;14.80;99.90;;;;;;6236384;23;20303;-74
2022/05/24 05:38:15;;;;;;;4.70;2.20;;;14.80;99.90;;;;;;6234217;23;20000;-75
2022/05/24 05:40:41;;;;;;;3.25;2.75;;;14.80;99.90;;;;;;6234819;23;20023;-74
2022/05/24 05:43:08;;;;;;;5.80;2.20;;;14.80;99.90;;;;;;6236437;23;20016;-73
2022/05/24 05:45:33;;;;;;;2.30;2.10;;;14.80;99.90;;;;;;6237475;23;20000;-75
2022/05/24 05:47:59;;;;;;;3.70;2.10;;;14.70;99.90;;;;;;6209825;23;20008;-75
2022/05/24 05:50:25;;;;;;;4.25;2.20;;;14.60;99.90;;;;;;6238133;23;20377;-74
2022/05/24 05:52:50;;;;;;;3.10;2.20;;;14.60;99.90;;;;;;6237487;23;20012;-75
2022/05/24 05:55:19;;;;;;;2.70;2.50;;;14.60;99.90;;;;;;6236623;23;20009;-75
2022/05/24 05:57:45;;;;;;;2.53;1.75;;;14.60;99.90;;;;;;6237243;23;20024;-76
2022/05/24 06:00:11;;;;;;;3.35;2.22;;;14.60;99.90;;;;;;6237509;22;20576;-75
2022/05/24 06:02:38;;;;;;;2.97;2.70;;;14.60;99.90;;;;;;6235054;23;20035;-75
2022/05/24 06:05:05;;;;;;;2.33;2.13;;;14.50;99.90;;;;;;6237410;23;20019;-75
2022/05/24 06:07:30;;;;;;;6.22;2.33;;;14.50;99.90;;;;;;6236970;23;20008;-74
2022/05/24 06:09:56;;;;;;;3.05;2.08;;;14.50;99.90;;;;;;6236668;23;20004;-75
2022/05/24 06:12:22;;;;;;;3.10;2.63;;;14.50;99.90;;;;;;6237793;23;20013;-75
2022/05/24 06:14:47;;;;;;;2.78;2.55;;;14.50;99.90;;;;;;6237410;23;20158;-73
2022/05/24 06:17:13;;;;;;;3.78;2.47;;;14.50;99.90;;;;;;6238078;23;20109;-74
2022/05/24 06:19:39;;;;;;;3.80;2.47;;;14.60;99.90;;;;;;6237067;23;20012;-74
2022/05/24 06:22:05;;;;;;;4.10;2.40;;;14.60;99.90;;;;;;6239065;23;20070;-74
2022/05/24 06:24:31;;;;;;;19.40;3.05;;;14.60;99.90;;;;;;6238150;22;20285;-74
2022/05/24 06:26:57;;;;;;;4.45;2.42;;;14.60;99.90;;;;;;6238307;23;20005;-74
2022/05/24 06:29:25;;;;;;;2.72;2.40;;;14.70;99.90;;;;;;6238375;23;20376;-75
2022/05/24 06:31:51;;;;;;;3.50;2.83;;;14.70;99.90;;;;;;6210977;23;20008;-75
2022/05/24 06:34:17;;;;;;;2.58;2.38;;;14.70;99.90;;;;;;6239401;22;20004;-74
2022/05/24 06:36:43;;;;;;;2.97;2.22;;;14.60;99.90;;;;;;6239277;23;20447;-74
2022/05/24 06:39:09;;;;;;;3.17;2.42;;;14.70;99.90;;;;;;6239309;23;20107;-75
2022/05/24 06:41:35;;;;;;;2.47;2.28;;;14.60;99.90;;;;;;6239194;23;20004;-75
2022/05/24 06:44:00;;;;;;;2.60;2.35;;;14.60;99.90;;;;;;6238237;23;20016;-75
2022/05/24 06:46:26;;;;;;;2.17;2.08;;;14.70;99.90;;;;;;6238274;23;20068;-74
2022/05/24 06:48:52;;;;;;;2.90;2.70;;;14.70;99.90;;;;;;6239504;23;20022;-75
2022/05/24 06:51:20;;;;;;;2.42;2.22;;;14.80;99.90;;;;;;6241004;23;20322;-74
2022/05/24 06:53:47;;;;;;;3.33;2.67;;;14.80;99.90;;;;;;6233650;23;20536;-75
2022/05/24 06:56:13;;;;;;;2.78;2.28;;;14.70;99.90;;;;;;6237424;23;20000;-74
2022/05/24 06:58:39;;;;;;;3.58;2.30;;;14.70;99.90;;;;;;6239188;23;20074;-75
2022/05/24 07:03:52;;;;;;;2.65;2.45;;;14.80;99.90;;;;;;6236419;23;20027;-75
2022/05/24 07:06:18;;;;;;;4.60;2.45;;;14.70;99.90;;;;;;6239247;23;20000;-74
2022/05/24 07:08:44;;;;;;;2.78;2.33;;;14.70;99.90;;;;;;6237965;23;20008;-75
2022/05/24 07:11:10;;;;;;;4.65;2.53;;;14.70;99.90;;;;;;6236681;23;20087;-75
2022/05/24 07:13:37;;;;;;;5.97;2.90;;;14.80;99.90;;;;;;6238839;23;20511;-75
2022/05/24 07:16:03;;;;;;;7.85;2.88;;;14.80;99.90;;;;;;6238231;23;20083;-74
2022/05/24 07:18:29;;;;;;;2.55;2.30;;;14.80;99.90;;;;;;6237391;23;20034;-74
2022/05/24 07:20:55;;;;;;;2.42;2.20;;;14.70;99.90;;;;;;6238038;23;20005;-74
2022/05/24 07:23:24;;;;;;;2.97;2.40;;;14.80;99.90;;;;;;6236827;23;20019;-74
2022/05/24 07:25:50;;;;;;;2.58;2.38;;;14.80;99.90;;;;;;6237931;23;20020;-74
2022/05/24 07:28:17;;;;;;;4.05;2.10;;;14.80;99.90;;;;;;6238967;23;19996;-74
2022/05/24 07:30:43;;;;;;;2.28;2.13;;;14.80;99.90;;;;;;6237010;23;20012;-75
2022/05/24 07:33:10;;;;;;;3.05;2.28;;;14.80;99.90;;;;;;6238153;23;20042;-74
2022/05/24 07:35:37;;;;;;;3.40;2.55;;;14.90;99.90;;;;;;6238288;23;20028;-74
2022/05/24 07:38:06;;;;;;;3.25;2.95;;;14.90;99.90;;;;;;6236450;23;20004;-74
2022/05/24 07:46:07;;;;;;;3.80;2.53;;;14.80;99.90;;;;;;6229137;23;20023;-75
2022/05/24 07:48:34;;;;;;;5.00;2.88;;;14.80;99.90;;;;;;6230576;23;20031;-74
2022/05/24 07:51:00;;;;;;;3.08;2.72;;;14.80;99.90;;;;;;6232490;23;20016;-75
2022/05/24 07:53:25;;;;;;;3.28;2.97;;;14.90;99.90;;;;;;6231748;23;20438;-75
2022/05/24 07:55:54;;;;;;;2.90;2.67;;;14.80;99.90;;;;;;6237782;23;20062;-75
2022/05/24 07:58:20;;;;;;;7.05;2.88;;;14.80;99.90;;;;;;6237760;23;20070;-74
2022/05/24 08:00:46;;;;;;;5.10;2.90;;;14.90;99.90;;;;;;6237463;23;20369;-74
2022/05/24 08:03:12;;;;;;;3.53;2.50;;;14.90;99.90;;;;;;6232578;23;20106;-74
2022/05/24 08:05:39;;;;;;;4.80;2.90;;;14.90;99.90;;;;;;6235194;23;20011;-75
2022/05/24 08:08:07;;;;;;;3.10;2.78;;;14.90;99.90;;;;;;6235127;23;20012;-74
2022/05/24 08:10:34;;;;;;;3.50;2.70;;;14.90;99.90;;;;;;6238717;23;20103;-74
2022/05/24 08:13:05;;;;;;;3.45;2.40;;;15.00;99.90;;;;;;6237094;23;20709;-74
2022/05/24 08:15:31;;;;;;;3.78;2.65;;;15.00;99.90;;;;;;6237314;23;20027;-74
2022/05/24 08:17:57;;;;;;;5.85;2.72;;;15.10;99.90;;;;;;6238178;23;20007;-74
2022/05/24 08:20:22;;;;;;;3.03;2.72;;;15.10;99.90;;;;;;6236671;23;20069;-74
2022/05/24 08:22:48;;;;;;;2.72;2.53;;;15.20;99.90;;;;;;6237434;23;20612;-74
2022/05/24 08:25:15;;;;;;;2.75;2.55;;;15.20;99.90;;;;;;6236917;23;20070;-74
2022/05/24 08:27:41;;;;;;;3.20;2.90;;;15.20;99.90;;;;;;6236865;23;20011;-74
2022/05/24 08:30:08;;;;;;;3.17;2.70;;;15.20;99.90;;;;;;6234948;22;20008;-74
2022/05/24 08:32:34;;;;;;;4.05;2.80;;;15.20;99.90;;;;;;6209521;23;20054;-74
2022/05/24 08:35:00;;;;;;;3.08;2.78;;;15.20;99.90;;;;;;6237581;23;20377;-74
2022/05/24 08:37:26;;;;;;;3.65;2.65;;;15.10;99.90;;;;;;6237859;23;20009;-74
2022/05/24 08:39:57;;;;;;;2.97;2.35;;;15.10;99.90;;;;;;6237176;23;20043;-74
2022/05/24 08:42:37;;;;;;;3.80;3.20;;;15.10;99.90;;;;;;6234214;23;20341;-75
2022/05/24 08:48:48;;;;;;;2.58;2.38;;;15.40;99.90;;;;;;6235665;23;20031;-74
2022/05/24 08:51:31;;;;;;;2.65;2.45;;;15.50;99.90;;;;;;6236065;23;20442;-75
2022/05/24 08:54:16;;;;;;;2.92;2.72;;;15.50;99.90;;;;;;6235864;23;20000;-75
2022/05/24 08:56:50;;;;;;;3.97;2.67;;;15.50;99.90;;;;;;6236312;23;20004;-75
2022/05/24 08:59:25;;;;;;;2.83;2.63;;;15.60;99.90;;;;;;6233125;23;20075;-75
2022/05/24 09:01:52;;;;;;;3.45;3.15;;;15.60;99.90;;;;;;6234000;23;20008;-75
2022/05/24 09:04:18;;;;;;;4.70;3.10;;;15.70;99.90;;;;;;6237799;23;20095;-74
2022/05/24 09:06:56;;;;;;;3.00;2.60;;;15.80;99.90;;;;;;6235875;23;20394;-75
2022/05/24 09:09:59;;;;;;;2.53;2.33;;;15.80;99.90;;;;;;6234962;23;20039;-75
2022/05/24 09:12:47;;;;;;;4.95;2.08;;;15.80;99.90;;;;;;6235665;23;20071;-75
2022/05/24 09:15:31;;;;;;;3.78;2.13;;;15.90;99.90;;;;;;6236213;23;20069;-75
2022/05/24 09:18:20;;;;;;;2.90;2.67;;;16.10;99.90;;;;;;6235400;23;20372;-76
2022/05/24 09:20:46;;;;;;;2.90;2.65;;;16.20;99.90;;;;;;6236020;23;19996;-75
2022/05/24 09:23:46;;;;;;;2.83;2.40;;;16.20;99.90;;;;;;6235424;23;20016;-76
2022/05/24 09:26:16;;;;;;;2.75;2.50;;;16.20;99.90;;;;;;6234358;22;20020;-77
2022/05/24 09:28:55;;;;;;;2.95;2.30;;;16.30;99.90;;;;;;6234131;23;20365;-76
2022/05/24 09:31:37;;;;;;;3.80;2.50;;;16.50;99.90;;;;;;6235417;23;20008;-76
2022/05/24 09:34:07;;;;;;;;;;;16.60;99.90;;;;;;6237806;23;20000;-76
2022/05/24 09:36:34;;;;;;;2.03;1.80;;;16.80;99.90;;;;;;6234821;23;19903;-76
2022/05/24 09:39:04;;;;;;;3.15;2.00;;;16.90;99.90;;;;;;6236195;23;20614;-76
2022/05/24 09:41:30;;;;;;;3.50;2.05;;;16.90;99.90;;;;;;6236191;23;20008;-77
2022/05/24 09:44:12;;;;;;;2.17;1.90;;;16.90;99.90;;;;;;6232658;23;20464;-75
2022/05/24 09:46:41;;;;;;;2.30;2.10;;;17.00;99.90;;;;;;6236067;23;20456;-75
2022/05/24 09:49:27;;;;;;;2.00;1.90;;;17.00;99.90;;;;;;6235950;23;20012;-74
2022/05/24 09:51:56;;;;;;;4.28;2.33;;;17.00;99.90;;;;;;6232538;23;20050;-78
2022/05/24 09:54:28;;;;;;;2.10;1.90;;;17.20;99.90;;;;;;6232592;23;20000;-76
2022/05/24 09:57:02;;;;;;;1.77;1.65;;;17.20;99.90;;;;;;6235859;23;20079;-77
2022/05/24 09:59:29;;;;;;;2.97;2.00;;;17.30;99.90;;;;;;6236327;23;20382;-79
2022/05/24 10:01:56;;;;;;;1.92;1.77;;;17.30;99.90;;;;;;6226165;23;20069;-76
2022/05/24 10:04:29;;;;;;;2.35;1.90;;;17.40;99.90;;;;;;6231798;23;20020;-79
2022/05/24 10:06:59;;;;;;;2.67;2.33;;;17.50;99.90;;;;;;6232341;23;20015;-79
2022/05/24 10:09:40;;;;;;;2.40;2.00;;;17.60;99.90;;;;;;6230501;22;20015;-76
2022/05/24 10:12:24;;;;;;;2.88;2.20;;;17.60;99.90;;;;;;6236001;23;20008;-77
2022/05/24 10:15:11;;;;;;;2.90;2.15;;;17.70;99.90;;;;;;6234288;23;20004;-79
2022/05/24 10:18:14;;;;;;;2.22;1.95;;;17.70;99.90;;;;;;6234945;22;20007;-79
2022/05/24 10:20:55;;;;;;;3.30;2.47;;;17.70;99.90;;;;;;6234195;22;20015;-79
2022/05/24 10:25:55;;;;;;;6.13;1.63;;;17.80;99.90;;;;;;6216315;22;20266;-77
2022/05/24 10:28:43;;;;;;;7.40;1.45;;;17.80;99.90;;;;;;6200855;23;20013;-77
2022/05/24 10:31:20;;;;;;;1.80;1.42;;;17.90;99.90;;;;;;6203163;23;20492;-83
2022/05/24 10:40:03;;;;;;;1.20;1.20;;;18.20;99.90;;;;;;6206050;23;20024;-75
2022/05/24 10:42:54;;;;;;;2.35;1.30;;;18.20;99.40;;;;;;6207047;23;20028;-75
2022/05/24 10:45:49;;;;;;;2.17;1.10;;;18.40;99.20;;;;;;6205580;23;20100;-77
2022/05/24 10:48:17;;;;;;;1.83;1.20;;;18.50;99.00;;;;;;6205476;23;20020;-77
2022/05/24 10:50:48;;;;;;;1.20;1.10;;;18.60;98.70;;;;;;6207328;23;20005;-77
2022/05/24 10:53:40;;;;;;;3.05;0.90;;;18.70;98.40;;;;;;6205218;23;20001;-79
2022/05/24 10:56:28;;;;;;;2.35;1.20;;;18.80;97.60;;;;;;6179971;23;20430;-78
2022/05/24 10:59:03;;;;;;;1.52;1.02;;;18.70;97.90;;;;;;6204778;23;20442;-74
2022/05/24 11:01:34;;;;;;;2.30;1.45;;;18.70;97.50;;;;;;6206137;23;20007;-74
2022/05/24 11:04:20;;;;;;;1.30;1.20;;;18.70;98.00;;;;;;6204926;23;20110;-75
2022/05/24 11:06:56;;;;;;;2.63;1.30;;;18.80;98.20;;;;;;6206384;23;20027;-74
2022/05/24 11:09:24;;;;;;;5.63;1.25;;;18.80;98.20;;;;;;6203912;23;20375;-76
2022/05/24 11:12:12;;;;;;;19.60;3.25;;;18.80;96.60;;;;;;6200692;23;20000;-77
2022/05/24 11:14:48;;;;;;;2.25;1.30;;;18.90;96.90;;;;;;6204683;23;20096;-78
2022/05/24 11:17:17;;;;;;;6.97;1.33;;;19.10;97.90;;;;;;6205802;23;20071;-79
2022/05/24 11:19:49;;;;;;;2.75;1.00;;;19.20;97.60;;;;;;6205048;23;20434;-76
2022/05/24 11:22:32;;;;;;;1.35;1.20;;;19.10;96.30;;;;;;6204770;23;20272;-81
2022/05/24 11:25:19;;;;;;;1.20;1.10;;;19.00;96.70;;;;;;6178632;23;20028;-75
2022/05/24 11:28:10;;;;;;;2.10;0.90;;;19.00;97.30;;;;;;6207448;23;20370;-79
2022/05/24 11:30:39;;;;;;;1.83;1.10;;;19.10;96.70;;;;;;6206626;23;20377;-78
2022/05/24 11:33:09;;;;;;;5.20;1.38;;;19.30;97.10;;;;;;6206123;23;20000;-76
2022/05/24 11:35:40;;;;;;;51.50;8.30;;;19.50;96.50;;;;;;6201289;23;20000;-76
2022/05/24 11:38:10;;;;;;;1.17;1.02;;;19.70;96.10;;;;;;6204000;23;20005;-78
2022/05/24 11:40:39;;;;;;;1.42;1.15;;;19.80;95.80;;;;;;6203543;23;20007;-81
2022/05/24 11:43:12;;;;;;;4.47;1.30;;;19.80;95.40;;;;;;6204875;23;20019;-81
2022/05/24 11:45:39;;;;;;;1.17;0.88;;;19.70;95.30;;;;;;6205865;23;20881;-80
2022/05/24 11:48:05;;;;;;;1.02;0.73;;;19.60;95.30;;;;;;6205628;23;20000;-77
2022/05/24 11:50:31;;;;;;;1.95;0.95;;;19.60;96.00;;;;;;6203724;23;20000;-80
2022/05/24 11:53:21;;;;;;;1.67;1.10;;;19.50;95.70;;;;;;6206016;23;20009;-79
2022/05/24 11:55:56;;;;;;;1.48;0.85;;;19.60;97.20;;;;;;6202750;23;20011;-78
2022/05/24 11:58:24;;;;;;;1.67;0.82;;;19.80;96.30;;;;;;6204361;23;20000;-78
2022/05/24 12:01:07;;;;;;;1.65;0.95;;;19.90;97.40;;;;;;6204610;23;20078;-77
2022/05/24 12:09:23;;;;;;;2.30;1.20;;;20.20;96.60;;;;;;6201174;23;20023;-80
2022/05/24 12:12:32;;;;;;;2.50;1.20;;;20.20;95.80;;;;;;6202073;23;20008;-79
2022/05/24 12:15:13;;;;;;;1.45;0.98;;;20.20;96.30;;;;;;6187171;23;20742;-80
2022/05/24 12:17:39;;;;;;;6.28;1.20;;;20.20;95.80;;;;;;6203664;23;20061;-77
2022/05/24 12:20:25;;;;;;;1.33;1.10;;;20.20;96.30;;;;;;6204880;23;20421;-81
2022/05/24 12:23:15;;;;;;;1.17;0.88;;;20.20;95.40;;;;;;6206718;23;20088;-81
2022/05/24 12:25:54;;;;;;;1.48;1.20;;;20.10;95.80;;;;;;6205556;23;20095;-79
2022/05/24 12:28:25;;;;;;;1.98;1.20;;;20.00;95.40;;;;;;6207971;23;20008;-79
2022/05/24 12:30:52;;;;;;;2.13;1.20;;;20.00;95.40;;;;;;6206680;23;20345;-78
2022/05/24 12:33:21;;;;;;;1.48;1.20;;;20.10;96.40;;;;;;6204968;23;20378;-72
2022/05/24 12:36:15;;;;;;;3.13;1.00;;;20.20;95.10;;;;;;6206661;23;20505;-72
2022/05/24 12:38:51;;;;;;;2.35;1.02;;;20.30;95.00;;;;;;6189093;23;20072;-77
2022/05/24 12:41:28;;;;;;;1.08;0.85;;;20.20;94.40;;;;;;6176204;23;20099;-74
2022/05/24 12:43:59;;;;;;;0.73;0.73;;;20.20;94.70;;;;;;6204961;23;20012;-76
2022/05/24 12:46:29;;;;;;;4.28;1.00;;;20.30;95.10;;;;;;6207344;23;20011;-75
2022/05/24 12:49:07;;;;;;;0.93;0.88;;;20.40;94.60;;;;;;6204362;23;20000;-71
2022/05/24 12:51:33;;;;;;;2.47;1.50;;;20.40;93.80;;;;;;6203060;23;20018;-71
2022/05/24 12:54:11;;;;;;;2.35;1.08;;;20.50;94.60;;;;;;6205327;23;20432;-75
2022/05/24 12:56:37;;;;;;;1.20;1.00;;;20.60;93.90;;;;;;6204590;23;20013;-75
2022/05/24 12:59:12;;;;;;;0.90;0.90;;;20.60;94.10;;;;;;6201680;23;20835;-73
2022/05/24 13:01:41;;;;;;;3.10;1.10;;;20.70;94.20;;;;;;6206620;23;20009;-75
2022/05/24 13:04:24;;;;;;;2.97;0.90;;;20.80;94.20;;;;;;6205377;23;20059;-74
2022/05/24 13:06:51;;;;;;;1.80;0.80;;;20.80;93.50;;;;;;6202159;23;20438;-70
2022/05/24 13:09:32;;;;;;;1.95;1.00;;;20.80;94.50;;;;;;6203691;23;20008;-75
2022/05/24 13:12:08;;;;;;;3.75;1.20;;;20.80;93.30;;;;;;6204283;23;20009;-74
2022/05/24 13:14:45;;;;;;;0.90;0.90;;;21.00;93.80;;;;;;6204145;23;20008;-74
2022/05/24 13:17:13;;;;;;;1.23;0.95;;;21.00;92.80;;;;;;6198157;23;20076;-75
2022/05/24 13:19:56;;;;;;;2.10;1.08;;;21.00;92.50;;;;;;6192358;23;20788;-77
2022/05/24 13:22:56;;;;;;;2.47;1.10;;;21.00;92.50;;;;;;6193775;23;20012;-73
2022/05/24 13:25:26;;;;;;;2.55;0.93;;;21.00;92.40;;;;;;6133801;23;20024;-71
2022/05/24 13:27:59;;;;;;;1.95;1.00;;;21.00;92.30;;;;;;6231040;23;20008;-82
2022/05/24 13:33:35;;;;;;;1.20;1.10;;;21.20;91.50;;;;;;6227433;23;20019;-78
2022/05/24 13:36:18;;;;;;;1.98;1.23;;;21.30;91.10;;;;;;6201510;23;20280;-72
2022/05/24 13:38:50;;;;;;;1.05;0.90;;;21.20;91.00;;;;;;6228431;23;20016;-78
2022/05/24 13:42:09;;;;;;;5.22;1.75;;;21.20;91.60;;;;;;6231784;23;20043;-79
2022/05/24 13:44:38;;;;;;;1.45;0.80;;;21.30;91.10;;;;;;6120783;23;20020;-80
2022/05/24 13:47:05;;;;;;;2.22;1.00;;;21.40;90.30;;;;;;6233355;23;20008;-74
2022/05/24 13:49:40;;;;;;;1.10;0.88;;;21.40;90.10;;;;;;6226230;23;20011;-72
2022/05/24 13:52:37;;;;;;;1.13;0.93;;;21.40;90.30;;;;;;6201753;23;20114;-73
2022/05/24 13:55:13;;;;;;;1.75;1.10;;;21.40;89.00;;;;;;6230955;23;20011;-72
2022/05/24 13:57:56;;;;;;;1.23;0.90;;;21.40;90.10;;;;;;6230616;23;20004;-72
2022/05/24 14:00:35;;;;;;;4.43;1.17;;;21.40;90.60;;;;;;6224921;23;20012;-72